createdAt,value
2023-02-26T00:01:43.545Z,1.30
2023-02-26T00:04:12.279Z,1.20
2023-02-26T00:06:53.801Z,1.17
2023-02-26T00:09:27.099Z,0.60
2023-02-26T00:11:55.751Z,1.20
2023-02-26T00:14:24.683Z,1.20
2023-02-26T00:19:52.113Z,1.60
2023-02-26T00:22:22.258Z,1.00
2023-02-26T00:24:50.326Z,1.10
2023-02-26T00:27:18.728Z,1.10
2023-02-26T00:29:47.735Z,1.20
2023-02-26T00:32:18.141Z,0.90
2023-02-26T00:34:47.190Z,1.00
2023-02-26T00:37:29.152Z,0.80
2023-02-26T00:40:09.953Z,0.90
2023-02-26T00:42:38.302Z,1.00
2023-02-26T00:45:09.103Z,1.17
2023-02-26T00:47:45.692Z,1.00
2023-02-26T00:50:18.206Z,1.47
2023-02-26T00:52:57.650Z,1.07
2023-02-26T00:55:27.244Z,1.47
2023-02-26T00:57:56.716Z,1.40
2023-02-26T01:00:25.027Z,1.53
2023-02-26T01:02:54.950Z,1.57
2023-02-26T01:05:23.629Z,1.43
2023-02-26T01:08:03.102Z,1.20
2023-02-26T01:10:32.140Z,1.43
2023-02-26T01:13:00.708Z,1.37
2023-02-26T01:15:29.583Z,1.47
2023-02-26T01:18:04.001Z,1.17
2023-02-26T01:20:40.977Z,1.00
2023-02-26T01:23:13.422Z,1.20
2023-02-26T01:25:51.844Z,1.13
2023-02-26T01:28:22.806Z,1.20
2023-02-26T01:30:52.140Z,1.00
2023-02-26T01:33:28.209Z,1.10
2023-02-26T01:36:02.997Z,1.00
2023-02-26T01:38:42.358Z,1.10
2023-02-26T01:41:29.890Z,1.00
2023-02-26T01:44:06.144Z,0.93
2023-02-26T01:46:39.233Z,1.10
2023-02-26T01:49:13.446Z,0.80
2023-02-26T01:51:51.212Z,1.40
2023-02-26T01:54:23.422Z,1.00
2023-02-26T01:56:57.349Z,0.97
2023-02-26T01:59:25.697Z,0.83
2023-02-26T02:01:56.065Z,1.20
2023-02-26T02:04:25.215Z,0.93
2023-02-26T02:06:53.875Z,1.27
2023-02-26T02:09:23.408Z,1.17
2023-02-26T02:12:09.188Z,0.90
2023-02-26T02:14:47.255Z,1.17
2023-02-26T02:17:25.122Z,1.00
2023-02-26T02:20:27.526Z,1.50
2023-02-26T02:23:12.701Z,1.00
2023-02-26T02:26:24.368Z,1.00
2023-02-26T02:29:26.483Z,0.87
2023-02-26T02:32:01.468Z,0.83
2023-02-26T02:34:38.887Z,0.93
2023-02-26T02:37:15.450Z,1.50
2023-02-26T02:39:47.774Z,1.27
2023-02-26T02:42:25.512Z,1.10
2023-02-26T02:44:59.823Z,0.87
2023-02-26T02:47:31.961Z,1.27
2023-02-26T02:50:07.681Z,1.30
2023-02-26T02:52:42.535Z,0.90
2023-02-26T02:55:15.143Z,0.67
2023-02-26T02:57:47.020Z,0.80
2023-02-26T03:00:17.794Z,0.87
2023-02-26T03:02:53.420Z,1.13
2023-02-26T03:05:23.685Z,1.03
2023-02-26T03:08:00.036Z,0.80
2023-02-26T03:10:30.358Z,1.10
2023-02-26T03:12:58.333Z,1.00
2023-02-26T03:15:34.556Z,1.07
2023-02-26T03:18:14.273Z,1.17
2023-02-26T03:20:50.704Z,1.30
2023-02-26T03:23:23.673Z,0.97
2023-02-26T03:25:56.217Z,1.07
2023-02-26T03:28:31.458Z,0.73
2023-02-26T03:31:03.593Z,1.00
2023-02-26T03:33:43.364Z,1.17
2023-02-26T03:36:17.500Z,0.97
2023-02-26T03:38:50.455Z,1.00
2023-02-26T03:41:23.843Z,1.27
2023-02-26T03:43:58.270Z,0.90
2023-02-26T03:46:31.113Z,1.00
2023-02-26T03:49:05.876Z,0.83
2023-02-26T03:51:36.439Z,1.00
2023-02-26T03:54:07.428Z,1.23
2023-02-26T03:56:41.176Z,1.00
2023-02-26T03:59:10.359Z,1.33
2023-02-26T04:01:44.344Z,1.10
2023-02-26T04:04:17.837Z,1.10
2023-02-26T04:06:46.705Z,1.30
2023-02-26T04:09:16.160Z,0.63
2023-02-26T04:11:46.429Z,1.63
2023-02-26T04:14:14.604Z,0.90
2023-02-26T04:16:43.231Z,1.00
2023-02-26T04:19:16.085Z,0.90
2023-02-26T04:21:45.698Z,1.20
2023-02-26T04:24:14.259Z,0.87
2023-02-26T04:26:44.475Z,1.00
2023-02-26T04:29:12.804Z,1.13
2023-02-26T04:31:41.780Z,1.40
2023-02-26T04:34:09.978Z,1.20
2023-02-26T04:36:38.128Z,0.80
2023-02-26T04:39:09.182Z,1.10
2023-02-26T04:41:37.762Z,0.90
2023-02-26T04:44:07.915Z,0.97
2023-02-26T04:46:35.995Z,1.10
2023-02-26T04:49:04.815Z,1.23
2023-02-26T04:51:32.889Z,1.20
2023-02-26T04:54:00.982Z,1.23
2023-02-26T04:56:33.501Z,0.97
2023-02-26T04:59:01.638Z,1.07
2023-02-26T05:01:29.632Z,1.10
2023-02-26T05:03:57.652Z,1.10
2023-02-26T05:06:25.945Z,1.00
2023-02-26T05:08:54.148Z,0.67
2023-02-26T05:11:22.360Z,1.07
2023-02-26T05:13:51.982Z,1.00
2023-02-26T05:16:20.089Z,1.27
2023-02-26T05:18:48.080Z,1.10
2023-02-26T05:21:24.595Z,0.90
2023-02-26T05:23:53.892Z,1.20
2023-02-26T05:26:23.407Z,1.37
2023-02-26T05:28:53.061Z,1.60
2023-02-26T05:31:21.220Z,1.10
2023-02-26T05:33:49.336Z,1.27
2023-02-26T05:36:17.297Z,0.93
2023-02-26T05:38:46.441Z,0.80
2023-02-26T05:41:14.500Z,0.93
2023-02-26T05:43:42.464Z,1.30
2023-02-26T05:46:14.094Z,0.93
2023-02-26T05:48:44.120Z,1.00
2023-02-26T05:51:13.416Z,1.27
2023-02-26T05:53:41.681Z,1.10
2023-02-26T05:56:10.966Z,1.07
2023-02-26T05:58:39.322Z,1.10
2023-02-26T06:01:07.354Z,1.20
2023-02-26T06:03:36.742Z,1.37
2023-02-26T06:06:04.966Z,1.10
2023-02-26T06:08:33.004Z,1.13
2023-02-26T06:11:01.056Z,1.00
2023-02-26T06:13:29.074Z,1.10
2023-02-26T06:15:57.087Z,1.20
2023-02-26T06:18:25.195Z,1.27
2023-02-26T06:20:54.994Z,1.57
2023-02-26T06:23:22.952Z,1.20
2023-02-26T06:25:52.513Z,1.33
2023-02-26T06:28:20.963Z,1.20
2023-02-26T06:30:48.993Z,1.00
2023-02-26T06:33:17.247Z,1.00
2023-02-26T06:35:45.214Z,1.10
2023-02-26T06:38:14.568Z,1.40
2023-02-26T06:40:42.906Z,1.43
2023-02-26T06:43:12.154Z,0.97
2023-02-26T06:45:40.470Z,0.97
2023-02-26T06:48:08.844Z,1.40
2023-02-26T06:50:36.843Z,1.17
2023-02-26T06:53:04.918Z,1.30
2023-02-26T06:55:34.638Z,1.40
2023-02-26T06:58:02.607Z,1.33
2023-02-26T07:00:30.599Z,1.20
2023-02-26T07:02:59.393Z,1.33
2023-02-26T07:05:27.571Z,0.80
2023-02-26T07:07:55.827Z,1.03
2023-02-26T07:10:26.488Z,1.20
2023-02-26T07:12:55.779Z,1.20
2023-02-26T07:15:26.722Z,1.33
2023-02-26T07:17:54.696Z,1.17
2023-02-26T07:20:23.203Z,1.10
2023-02-26T07:22:51.336Z,1.30
2023-02-26T07:25:19.709Z,1.30
2023-02-26T07:27:48.511Z,1.43
2023-02-26T07:30:18.372Z,1.87
2023-02-26T07:32:46.824Z,1.17
2023-02-26T07:35:15.403Z,1.33
2023-02-26T07:37:43.441Z,1.47
2023-02-26T07:40:13.031Z,1.67
2023-02-26T07:42:41.623Z,1.23
2023-02-26T07:45:10.225Z,1.30
2023-02-26T07:47:41.551Z,1.30
2023-02-26T07:50:11.016Z,1.27
2023-02-26T07:52:39.062Z,1.43
2023-02-26T07:55:08.121Z,1.50
2023-02-26T07:57:36.135Z,1.07
2023-02-26T08:00:06.494Z,1.63
2023-02-26T08:02:35.786Z,1.63
2023-02-26T08:05:06.013Z,5.13
2023-02-26T08:07:34.389Z,3.80
2023-02-26T08:10:02.583Z,1.70
2023-02-26T08:12:31.373Z,1.47
2023-02-26T08:14:59.469Z,1.33
2023-02-26T08:17:28.510Z,1.73
2023-02-26T08:19:56.555Z,1.37
2023-02-26T08:22:25.998Z,1.20
2023-02-26T08:24:57.065Z,1.60
2023-02-26T08:27:25.382Z,1.07
2023-02-26T08:29:53.363Z,1.17
2023-02-26T08:32:23.061Z,2.37
2023-02-26T08:34:51.458Z,1.30
2023-02-26T08:37:22.791Z,1.07
2023-02-26T08:39:52.327Z,1.47
2023-02-26T08:42:21.224Z,1.40
2023-02-26T08:44:49.345Z,1.30
2023-02-26T08:47:28.131Z,1.10
2023-02-26T08:49:58.850Z,1.17
2023-02-26T08:52:29.014Z,1.40
2023-02-26T08:54:58.454Z,1.00
2023-02-26T08:57:26.543Z,1.30
2023-02-26T08:59:55.200Z,1.00
2023-02-26T09:02:23.710Z,1.20
2023-02-26T09:04:54.779Z,1.10
2023-02-26T09:07:22.808Z,1.30
2023-02-26T09:09:50.916Z,1.60
2023-02-26T09:12:20.626Z,1.30
2023-02-26T09:14:48.746Z,1.17
2023-02-26T09:17:18.771Z,1.23
2023-02-26T09:19:46.737Z,0.90
2023-02-26T09:22:15.129Z,1.10
2023-02-26T09:24:43.347Z,1.60
2023-02-26T09:27:11.440Z,1.10
2023-02-26T09:29:40.935Z,1.30
2023-02-26T09:32:09.571Z,1.73
2023-02-26T09:34:37.819Z,1.30
2023-02-26T09:37:06.946Z,1.17
2023-02-26T09:39:35.968Z,1.43
2023-02-26T09:42:11.185Z,0.97
2023-02-26T09:44:41.012Z,2.70
2023-02-26T09:47:15.995Z,1.53
2023-02-26T09:49:55.196Z,2.93
2023-02-26T09:52:30.156Z,3.03
2023-02-26T09:55:01.162Z,2.53
2023-02-26T09:57:32.793Z,2.07
2023-02-26T10:00:03.404Z,3.37
2023-02-26T10:02:39.476Z,1.63
2023-02-26T10:05:20.387Z,1.40
2023-02-26T10:07:55.665Z,2.37
2023-02-26T10:10:33.515Z,2.37
2023-02-26T10:13:04.581Z,3.63
2023-02-26T10:15:43.748Z,1.47
2023-02-26T10:18:20.394Z,1.63
2023-02-26T10:20:55.444Z,1.53
2023-02-26T10:23:33.316Z,2.60
2023-02-26T10:26:08.730Z,3.00
2023-02-26T10:28:55.803Z,1.40
2023-02-26T10:31:33.881Z,1.93
2023-02-26T10:34:12.110Z,4.20
2023-02-26T10:36:48.338Z,1.97
2023-02-26T10:39:29.561Z,1.57
2023-02-26T10:42:02.766Z,1.47
2023-02-26T10:44:38.047Z,1.20
2023-02-26T10:56:01.769Z,4.00
2023-02-26T10:58:31.867Z,2.13
2023-02-26T11:01:00.782Z,1.40
2023-02-26T11:03:42.248Z,1.03
2023-02-26T11:06:41.498Z,1.20
2023-02-26T11:09:29.442Z,1.20
2023-02-26T11:12:43.737Z,1.20
2023-02-26T11:16:05.401Z,1.00
2023-02-26T11:18:57.097Z,1.03
2023-02-26T11:22:00.738Z,0.67
2023-02-26T11:25:20.660Z,0.83
2023-02-26T11:31:56.128Z,0.70
2023-02-26T11:35:24.291Z,0.80
2023-02-26T11:39:06.301Z,0.90
2023-02-26T11:42:18.999Z,0.83
2023-02-26T12:12:40.255Z,1.70
2023-02-26T12:16:16.161Z,1.03
2023-02-26T12:19:59.113Z,0.90
2023-02-26T12:23:18.342Z,0.77
2023-02-26T12:26:13.113Z,0.80
2023-02-26T12:29:03.707Z,0.93
2023-02-26T12:32:07.428Z,0.70
2023-02-26T12:35:20.353Z,1.17
2023-02-26T12:38:43.211Z,0.90
2023-02-26T12:41:59.958Z,0.90
2023-02-26T12:45:22.216Z,0.90
2023-02-26T12:48:26.102Z,1.10
2023-02-26T12:51:26.674Z,0.93
2023-02-26T12:54:57.881Z,0.80
2023-02-26T12:58:06.071Z,1.10
2023-02-26T13:01:15.170Z,1.13
2023-02-26T13:04:14.078Z,0.83
2023-02-26T13:07:02.288Z,0.90
2023-02-26T13:09:58.648Z,0.80
2023-02-26T13:12:39.048Z,0.90
2023-02-26T13:15:33.760Z,0.87
2023-02-26T13:18:16.355Z,0.90
2023-02-26T13:21:01.206Z,1.07
2023-02-26T13:23:37.581Z,1.07
2023-02-26T13:26:10.224Z,0.80
2023-02-26T13:28:43.822Z,1.03
2023-02-26T13:31:21.921Z,1.47
2023-02-26T13:33:51.706Z,0.97
2023-02-26T13:36:29.320Z,1.53
2023-02-26T13:39:11.579Z,1.17
2023-02-26T13:41:49.816Z,0.90
2023-02-26T15:33:58.606Z,1.03
2023-02-26T15:36:37.798Z,1.17
2023-02-26T15:39:33.995Z,1.07
2023-02-26T15:42:07.063Z,0.90
2023-02-26T15:44:40.473Z,1.53
2023-02-26T15:47:42.448Z,1.60
2023-02-26T15:50:30.510Z,1.53
2023-02-26T15:53:06.476Z,2.87
2023-02-26T15:55:48.270Z,1.73
2023-02-26T15:58:49.226Z,1.70
2023-02-26T16:01:44.577Z,1.40
2023-02-26T16:04:27.945Z,1.20
2023-02-26T16:07:06.657Z,1.13
2023-02-26T16:09:48.751Z,1.20
2023-02-26T16:12:25.657Z,2.50
2023-02-26T16:15:09.071Z,2.10
2023-02-26T16:17:52.307Z,1.60
2023-02-26T16:20:30.978Z,2.13
2023-02-26T16:23:04.875Z,2.30
2023-02-26T16:25:38.768Z,2.00
2023-02-26T16:28:22.217Z,2.33
2023-02-26T16:30:54.643Z,2.30
2023-02-26T16:33:26.541Z,1.97
2023-02-26T16:35:57.726Z,1.57
2023-02-26T16:38:28.772Z,1.30
2023-02-26T16:41:02.039Z,1.67
2023-02-26T16:43:54.955Z,1.83
2023-02-26T16:46:33.178Z,1.57
2023-02-26T16:49:06.044Z,1.40
2023-02-26T16:51:44.355Z,1.50
2023-02-26T16:54:27.491Z,1.80
2023-02-26T16:57:04.628Z,1.33
2023-02-26T16:59:36.911Z,2.10
2023-02-26T17:02:14.913Z,1.80
2023-02-26T17:04:53.068Z,1.57
2023-02-26T17:07:29.110Z,1.97
2023-02-26T17:10:00.418Z,1.93
2023-02-26T17:12:45.100Z,1.50
2023-02-26T17:15:21.288Z,1.77
2023-02-26T17:17:51.126Z,2.20
2023-02-26T17:20:20.370Z,1.97
2023-02-26T17:22:52.581Z,2.10
2023-02-26T17:25:24.035Z,2.10
2023-02-26T17:27:58.116Z,1.80
2023-02-26T17:30:30.051Z,2.17
2023-02-26T17:32:58.864Z,2.03
2023-02-26T17:35:29.364Z,2.30
2023-02-26T17:38:03.177Z,2.37
2023-02-26T17:40:37.812Z,2.47
2023-02-26T17:43:10.252Z,2.70
2023-02-26T17:45:43.733Z,2.33
2023-02-26T17:48:16.950Z,2.20
2023-02-26T17:50:49.437Z,2.30
2023-02-26T17:53:20.653Z,2.10
2023-02-26T17:55:52.625Z,2.40
2023-02-26T17:58:30.675Z,2.53
2023-02-26T18:01:00.427Z,2.00
2023-02-26T18:03:30.335Z,2.13
2023-02-26T18:06:01.117Z,2.30
2023-02-26T18:08:32.816Z,2.53
2023-02-26T18:11:05.485Z,2.90
2023-02-26T18:13:41.241Z,2.50
2023-02-26T18:16:23.340Z,2.80
2023-02-26T18:18:59.313Z,2.93
2023-02-26T18:21:31.838Z,2.50
2023-02-26T18:24:02.148Z,2.70
2023-02-26T18:26:35.277Z,3.40
2023-02-26T18:29:06.869Z,2.37
2023-02-26T18:31:37.040Z,3.10
2023-02-26T18:34:07.652Z,2.80
2023-02-26T18:36:38.861Z,2.70
2023-02-26T18:39:10.696Z,2.90
2023-02-26T18:41:40.233Z,2.80
2023-02-26T18:44:11.863Z,2.63
2023-02-26T18:46:49.697Z,2.80
2023-02-26T18:49:21.566Z,3.00
2023-02-26T18:51:51.600Z,3.27
2023-02-26T18:54:21.079Z,3.00
2023-02-26T18:56:52.040Z,2.30
2023-02-26T18:59:23.452Z,2.60
2023-02-26T19:01:56.348Z,2.73
2023-02-26T19:04:26.134Z,2.40
2023-02-26T19:07:06.231Z,2.80
2023-02-26T19:09:40.750Z,3.00
2023-02-26T19:12:11.926Z,2.57
2023-02-26T19:14:43.231Z,2.77
2023-02-26T19:17:13.071Z,2.70
2023-02-26T19:19:43.626Z,2.43
2023-02-26T19:22:14.368Z,2.77
2023-02-26T19:24:43.694Z,2.87
2023-02-26T19:27:14.920Z,2.97
2023-02-26T19:29:46.317Z,3.10
2023-02-26T19:32:16.054Z,3.07
2023-02-26T19:34:44.569Z,2.90
2023-02-26T19:37:13.063Z,2.80
2023-02-26T19:39:41.538Z,3.00
2023-02-26T19:42:11.574Z,2.80
2023-02-26T19:44:39.962Z,2.80
2023-02-26T19:47:10.000Z,3.20
2023-02-26T19:49:38.098Z,2.97
2023-02-26T19:52:08.222Z,3.13
2023-02-26T19:54:36.329Z,3.10
2023-02-26T19:57:04.413Z,3.37
2023-02-26T19:59:32.737Z,2.63
2023-02-26T20:02:01.018Z,3.43
2023-02-26T20:04:30.460Z,3.83
2023-02-26T20:07:00.514Z,3.67
2023-02-26T20:09:29.479Z,3.30
2023-02-26T20:12:07.801Z,3.57
2023-02-26T20:14:37.022Z,3.97
2023-02-26T20:17:05.120Z,3.57
2023-02-26T20:19:34.539Z,3.80
2023-02-26T20:22:06.322Z,3.47
2023-02-26T20:24:34.708Z,2.93
2023-02-26T20:27:06.878Z,3.37
2023-02-26T20:29:35.462Z,3.27
2023-02-26T20:32:03.756Z,4.27
2023-02-26T20:34:32.190Z,3.63
2023-02-26T20:37:01.867Z,3.40
2023-02-26T20:39:36.059Z,3.90
2023-02-26T20:42:05.350Z,4.03
2023-02-26T20:44:38.321Z,3.70
2023-02-26T20:47:06.405Z,4.10
2023-02-26T20:49:36.939Z,3.80
2023-02-26T20:52:07.003Z,3.27
2023-02-26T20:54:35.070Z,3.60
2023-02-26T20:57:03.202Z,4.17
2023-02-26T20:59:31.777Z,3.60
2023-02-26T21:02:06.039Z,4.07
2023-02-26T21:04:34.316Z,3.27
2023-02-26T21:07:17.539Z,3.27
2023-02-26T21:09:49.942Z,3.30
2023-02-26T21:12:18.306Z,3.80
2023-02-26T21:14:47.488Z,4.50
2023-02-26T21:17:15.616Z,4.03
2023-02-26T21:19:43.893Z,4.13
2023-02-26T21:22:13.568Z,3.60
2023-02-26T21:24:41.690Z,3.87
2023-02-26T21:27:12.513Z,3.77
2023-02-26T21:29:40.898Z,3.40
2023-02-26T21:32:09.160Z,3.80
2023-02-26T21:34:37.591Z,3.70
2023-02-26T21:37:07.454Z,4.43
2023-02-26T21:39:40.545Z,3.83
2023-02-26T21:42:12.747Z,3.73
2023-02-26T21:44:42.781Z,3.83
2023-02-26T21:47:12.218Z,3.67
2023-02-26T21:49:42.904Z,4.10
2023-02-26T21:52:12.471Z,3.93
2023-02-26T21:54:40.864Z,4.57
2023-02-26T21:57:09.245Z,3.60
2023-02-26T21:59:38.736Z,3.80
2023-02-26T22:02:08.728Z,3.90
2023-02-26T22:04:36.897Z,4.20
2023-02-26T22:07:09.437Z,4.30
2023-02-26T22:09:37.662Z,4.10
2023-02-26T22:12:06.581Z,4.20
2023-02-26T22:14:34.646Z,3.43
2023-02-26T22:17:04.324Z,4.00
2023-02-26T22:19:34.603Z,3.70
2023-02-26T22:22:02.849Z,3.60
2023-02-26T22:24:36.844Z,4.03
2023-02-26T22:27:05.349Z,3.63
2023-02-26T22:29:33.439Z,3.73
2023-02-26T22:32:03.180Z,4.03
2023-02-26T22:34:33.812Z,4.40
2023-02-26T22:37:01.860Z,3.97
2023-02-26T22:39:30.044Z,3.50
2023-02-26T22:41:58.180Z,3.60
2023-02-26T22:44:26.301Z,3.37
2023-02-26T22:46:54.619Z,3.57
2023-02-26T22:49:26.220Z,4.23
2023-02-26T22:51:54.228Z,3.70
2023-02-26T22:54:22.527Z,3.83
2023-02-26T22:56:50.778Z,3.80
2023-02-26T22:59:18.859Z,3.80
2023-02-26T23:01:46.879Z,3.63
2023-02-26T23:04:15.404Z,4.13
2023-02-26T23:06:45.235Z,3.80
2023-02-26T23:09:16.435Z,3.97
2023-02-26T23:11:44.846Z,3.57
2023-02-26T23:14:18.935Z,4.00
2023-02-26T23:16:46.906Z,3.77
2023-02-26T23:19:15.099Z,3.47
2023-02-26T23:21:44.675Z,3.40
2023-02-26T23:24:12.703Z,3.47
2023-02-26T23:26:40.707Z,4.20
2023-02-26T23:29:08.873Z,3.47
2023-02-26T23:31:37.486Z,3.70
2023-02-26T23:34:06.970Z,4.10
2023-02-26T23:36:35.681Z,4.33
2023-02-26T23:39:05.176Z,4.10
2023-02-26T23:41:33.583Z,4.03
2023-02-26T23:44:01.758Z,4.27
2023-02-26T23:46:29.828Z,3.20
2023-02-26T23:49:00.158Z,3.50
2023-02-26T23:51:28.472Z,3.07
2023-02-26T23:53:58.768Z,3.70
2023-02-26T23:56:28.253Z,3.43
2023-02-26T23:58:56.725Z,3.60
